Time;durP1;ratioP1;P1;durP2;ratioP2;P2;SDS_P1;SDS_P2;PMS_P1;PMS_P2;Temp;Humidity;BMP_temperature;BMP_pressure;BME280_temperature;BME280_humidity;BME280_pressure;Samples;Min_cycle;Max_cycle;Signal;HPM_P1;HPM_P2
2023/05/14 00:01:40;;;;;;;4.95;3.03;;;;;;;19.27;46.71;101632.31;5016918;28;20093;-61
2023/05/14 00:04:06;;;;;;;4.13;2.83;;;;;;;19.24;46.76;101632.63;5016866;28;20033;-63
2023/05/14 00:06:31;;;;;;;5.03;3.22;;;;;;;19.18;46.61;101626.00;5000798;28;20021;-61
2023/05/14 00:08:56;;;;;;;3.03;2.72;;;;;;;19.14;47.13;101622.78;5016567;28;20080;-62
2023/05/14 00:11:22;;;;;;;4.45;3.50;;;;;;;19.13;46.58;101621.06;5016709;28;20117;-62
2023/05/14 00:13:48;;;;;;;4.63;3.47;;;;;;;19.10;46.68;101634.13;5016639;28;20184;-62
2023/05/14 00:16:14;;;;;;;4.38;2.45;;;;;;;19.05;46.82;101618.34;5016138;28;20084;-62
2023/05/14 00:18:40;;;;;;;1.80;1.70;;;;;;;19.02;46.47;101615.94;5034983;28;20029;-61
2023/05/14 00:21:05;;;;;;;2.15;1.83;;;;;;;18.97;47.05;101618.31;5016513;28;20435;-62
2023/05/14 00:23:31;;;;;;;2.72;2.25;;;;;;;18.93;46.34;101621.50;5000919;28;20072;-62
2023/05/14 00:25:56;;;;;;;5.75;3.88;;;;;;;18.86;46.99;101615.03;5015569;28;20493;-62
2023/05/14 00:28:22;;;;;;;3.28;2.83;;;;;;;18.85;47.09;101619.63;5000117;28;20037;-62
2023/05/14 00:30:47;;;;;;;7.30;3.60;;;;;;;18.84;46.74;101622.50;5016296;28;20046;-62
2023/05/14 00:33:12;;;;;;;5.40;3.80;;;;;;;18.82;47.12;101622.66;5016156;28;20587;-62
2023/05/14 00:35:38;;;;;;;6.15;3.85;;;;;;;18.80;47.29;101611.13;4999940;28;20057;-62
2023/05/14 00:38:03;;;;;;;3.05;2.75;;;;;;;18.78;46.86;101609.56;5016151;28;20563;-62
2023/05/14 00:40:29;;;;;;;3.83;2.80;;;;;;;18.75;47.02;101605.31;4999962;28;20444;-62
2023/05/14 00:42:55;;;;;;;3.30;2.80;;;;;;;18.74;46.95;101614.47;5016792;28;20025;-62
2023/05/14 00:45:20;;;;;;;3.95;3.13;;;;;;;18.72;46.90;101611.09;5034107;28;20080;-62
2023/05/14 00:47:47;;;;;;;3.28;2.97;;;;;;;18.69;46.63;101614.13;5015947;28;20549;-62
2023/05/14 00:50:13;;;;;;;3.92;2.90;;;;;;;18.67;46.95;101610.72;5016473;28;20128;-61
2023/05/14 00:52:39;;;;;;;7.00;3.70;;;;;;;18.64;47.20;101619.19;5001031;28;20040;-62
2023/05/14 00:55:06;;;;;;;5.90;4.10;;;;;;;18.61;46.64;101608.66;5016259;28;20025;-62
2023/05/14 00:57:32;;;;;;;5.55;4.07;;;;;;;18.60;47.57;101612.38;5016378;28;20017;-62
2023/05/14 00:59:58;;;;;;;4.80;4.00;;;;;;;18.59;47.44;101610.69;4983394;28;20445;-62
2023/05/14 01:02:23;;;;;;;5.22;3.85;;;;;;;18.55;46.72;101603.88;4999492;28;20550;-62
2023/05/14 01:04:50;;;;;;;4.97;4.05;;;;;;;18.52;46.85;101602.34;4999436;28;20059;-61
2023/05/14 01:07:21;;;;;;;6.03;4.22;;;;;;;18.50;47.64;101600.78;4999393;28;20021;-62
2023/05/14 01:10:01;;;;;;;5.82;3.38;;;;;;;18.45;47.67;101603.13;5016207;28;20029;-62
2023/05/14 01:12:55;;;;;;;9.05;3.75;;;;;;;18.41;47.20;101599.00;4999674;28;20083;-62
2023/05/14 01:15:23;;;;;;;7.55;3.92;;;;;;;18.40;46.99;101594.59;4999575;28;20037;-61
2023/05/14 01:17:55;;;;;;;8.60;3.30;;;;;;;18.36;47.76;101593.22;5016325;28;20505;-62
2023/05/14 01:20:20;;;;;;;10.90;3.77;;;;;;;18.31;47.60;101601.00;5016346;28;20046;-62
2023/05/14 01:22:46;;;;;;;4.65;3.25;;;;;;;18.26;46.88;101603.31;4999408;28;20037;-62
2023/05/14 01:25:11;;;;;;;3.55;3.08;;;;;;;18.22;47.51;101602.81;5015729;28;20026;-62
2023/05/14 01:27:50;;;;;;;5.35;3.15;;;;;;;18.22;47.38;101597.38;5015851;28;20518;-61
2023/05/14 01:30:20;;;;;;;3.28;2.67;;;;;;;18.19;47.63;101607.69;5015769;28;20053;-62
2023/05/14 01:32:47;;;;;;;3.22;2.40;;;;;;;18.13;46.80;101602.91;4998343;28;20037;-62
2023/05/14 01:35:13;;;;;;;6.95;3.72;;;;;;;18.10;46.75;101600.50;5015664;28;20531;-62
2023/05/14 01:37:39;;;;;;;3.65;2.80;;;;;;;18.04;46.70;101594.72;5015477;28;20120;-62
2023/05/14 01:40:05;;;;;;;8.10;1.80;;;;;;;18.01;48.17;101589.59;4998881;28;20025;-62
2023/05/14 01:42:31;;;;;;;5.30;2.13;;;;;;;17.99;47.50;101593.47;4999529;28;20028;-62
2023/05/14 01:44:56;;;;;;;7.50;2.42;;;;;;;17.97;46.85;101593.66;4999350;28;20034;-64
2023/05/14 01:47:22;;;;;;;2.28;1.90;;;;;;;17.94;46.92;101593.97;4998955;28;20116;-62
2023/05/14 01:49:47;;;;;;;4.53;3.58;;;;;;;17.90;47.60;101587.16;5032792;28;20082;-61
2023/05/14 01:52:12;;;;;;;4.25;3.05;;;;;;;17.87;47.37;101595.59;5015021;28;20025;-62
2023/05/14 01:54:38;;;;;;;3.75;3.35;;;;;;;17.85;47.99;101589.50;5015935;28;20021;-61
2023/05/14 01:57:03;;;;;;;5.38;3.25;;;;;;;17.71;47.60;101573.78;5015293;28;20059;-62
2023/05/14 01:59:29;;;;;;;3.95;3.00;;;;;;;17.80;47.53;101589.13;5015440;28;20038;-62
2023/05/14 02:01:54;;;;;;;4.60;3.58;;;;;;;17.78;47.14;101587.56;5015890;28;20044;-61
2023/05/14 02:04:20;;;;;;;12.15;4.00;;;;;;;17.72;47.70;101575.50;5033624;28;20061;-62
2023/05/14 02:06:45;;;;;;;8.20;4.50;;;;;;;17.70;47.62;101580.22;5016211;28;20053;-62
2023/05/14 02:09:10;;;;;;;6.72;4.00;;;;;;;17.73;47.96;101588.03;5033828;28;20044;-61
2023/05/14 02:11:36;;;;;;;5.63;4.00;;;;;;;17.69;47.82;101583.94;5032828;28;20378;-63
2023/05/14 02:14:01;;;;;;;4.45;3.42;;;;;;;17.66;47.34;101583.41;4998623;28;20048;-61
2023/05/14 02:16:27;;;;;;;4.38;3.85;;;;;;;17.63;47.61;101587.28;5032603;28;20103;-63
2023/05/14 02:18:52;;;;;;;8.43;4.40;;;;;;;17.63;47.92;101584.56;5015116;28;20025;-62
2023/05/14 02:21:18;;;;;;;5.47;4.13;;;;;;;17.63;48.43;101581.84;5014518;28;20428;-61
2023/05/14 02:23:43;;;;;;;4.05;3.03;;;;;;;17.63;47.86;101583.72;5014714;28;20034;-61
2023/05/14 02:26:10;;;;;;;5.05;3.08;;;;;;;17.60;47.99;101590.28;5032405;28;20064;-62
2023/05/14 02:28:35;;;;;;;4.43;2.75;;;;;;;17.54;48.37;101585.50;5014617;28;20065;-62
2023/05/14 02:31:00;;;;;;;4.38;3.85;;;;;;;17.57;47.38;101595.16;5031760;28;20421;-62
2023/05/14 02:33:26;;;;;;;9.40;3.90;;;;;;;17.54;47.84;101590.06;5014925;28;20053;-62
2023/05/14 02:35:52;;;;;;;5.20;3.70;;;;;;;17.50;47.84;101594.91;4998871;28;20041;-61
2023/05/14 02:38:17;;;;;;;4.68;3.28;;;;;;;17.51;48.38;101599.31;5014928;28;20579;-61
2023/05/14 02:40:43;;;;;;;8.55;3.67;;;;;;;17.48;48.11;101602.31;5002103;28;20044;-61
2023/05/14 02:43:08;;;;;;;3.00;2.70;;;;;;;17.45;47.73;101586.38;5001963;28;20026;-61
2023/05/14 02:45:33;;;;;;;4.45;3.40;;;;;;;17.42;48.07;101587.53;5019133;28;20034;-62
2023/05/14 02:47:59;;;;;;;7.03;3.90;;;;;;;17.41;47.68;101590.44;5036074;28;20040;-63
2023/05/14 02:50:24;;;;;;;4.93;3.53;;;;;;;17.34;47.49;101584.75;5018127;28;20501;-62
2023/05/14 02:52:49;;;;;;;3.70;3.13;;;;;;;17.37;48.41;101584.47;5018204;28;20026;-62
2023/05/14 02:55:15;;;;;;;4.15;2.70;;;;;;;17.36;48.11;101587.34;4985550;28;20022;-62
2023/05/14 02:57:40;;;;;;;3.45;2.67;;;;;;;17.32;46.99;101584.06;5018743;28;20481;-62
2023/05/14 03:00:07;;;;;;;2.58;2.38;;;;;;;17.27;47.63;101574.72;5017972;28;20075;-62
2023/05/14 03:02:34;;;;;;;6.97;2.65;;;;;;;17.23;48.16;101570.59;5018289;28;20042;-62
2023/05/14 03:05:00;;;;;;;4.15;2.78;;;;;;;17.21;47.76;101569.91;5003566;28;20175;-61
2023/05/14 03:07:25;;;;;;;5.53;2.90;;;;;;;17.17;48.08;101579.34;5038050;28;20067;-61
2023/05/14 03:09:50;;;;;;;4.03;3.28;;;;;;;17.15;48.78;101575.94;4989778;28;20119;-61
2023/05/14 03:12:17;;;;;;;5.70;4.45;;;;;;;17.11;47.70;101574.56;5022497;28;20044;-61
2023/05/14 03:14:43;;;;;;;6.28;3.88;;;;;;;17.13;47.79;101575.25;5002412;28;20033;-62
2023/05/14 03:17:08;;;;;;;5.90;3.42;;;;;;;17.12;48.13;101573.53;5017843;28;20112;-62
2023/05/14 03:19:34;;;;;;;5.93;4.15;;;;;;;17.10;48.02;101572.84;5001547;28;20041;-62
2023/05/14 03:21:59;;;;;;;6.30;3.85;;;;;;;17.09;48.80;101571.97;5001474;28;20052;-61
2023/05/14 03:24:24;;;;;;;4.82;3.88;;;;;;;17.09;47.98;101579.25;4985473;28;20028;-61
2023/05/14 03:26:50;;;;;;;3.38;3.03;;;;;;;17.09;48.08;101581.94;5017543;28;20037;-62
2023/05/14 03:29:16;;;;;;;5.32;4.70;;;;;;;17.09;47.74;101577.41;5035350;28;20041;-61
2023/05/14 03:31:42;;;;;;;10.23;5.63;;;;;;;17.04;48.96;101559.91;5017633;28;20048;-62
2023/05/14 03:34:08;;;;;;;8.02;6.05;;;;;;;17.10;49.44;101568.28;5000731;28;20053;-62
2023/05/14 03:36:35;;;;;;;6.95;4.82;;;;;;;17.10;49.31;101578.25;5001462;28;20116;-61
2023/05/14 03:39:00;;;;;;;6.25;5.03;;;;;;;17.08;48.65;101570.28;5001087;28;20052;-62
2023/05/14 03:41:26;;;;;;;7.22;4.07;;;;;;;17.11;48.21;101572.69;5007957;28;20121;-61
2023/05/14 03:43:51;;;;;;;8.18;4.28;;;;;;;17.12;49.20;101578.94;5017290;28;20057;-61
2023/05/14 03:46:17;;;;;;;5.80;4.40;;;;;;;17.11;48.59;101577.25;5000967;28;20036;-62
2023/05/14 03:48:42;;;;;;;5.68;4.03;;;;;;;17.09;48.58;101569.28;5001478;28;20034;-62
2023/05/14 03:51:07;;;;;;;5.68;4.78;;;;;;;17.08;48.60;101569.44;5016280;28;20041;-61
2023/05/14 03:53:33;;;;;;;7.18;5.03;;;;;;;17.08;49.15;101566.72;4984415;28;20446;-61
2023/05/14 03:55:58;;;;;;;6.70;4.65;;;;;;;17.08;49.06;101566.72;5016946;28;20457;-62
2023/05/14 03:58:24;;;;;;;5.50;4.70;;;;;;;17.07;49.13;101565.88;5000680;28;20041;-62
2023/05/14 04:00:49;;;;;;;8.05;5.43;;;;;;;17.05;48.26;101556.22;5001031;28;20030;-62
2023/05/14 04:03:15;;;;;;;5.70;5.03;;;;;;;17.04;49.67;101554.50;5000557;28;20037;-61
2023/05/14 04:05:40;;;;;;;9.18;5.38;;;;;;;17.02;48.73;101549.25;5016738;28;20043;-62
2023/05/14 04:08:06;;;;;;;8.38;4.93;;;;;;;17.05;50.06;101553.50;5016910;28;20079;-62
2023/05/14 04:10:31;;;;;;;6.65;4.85;;;;;;;17.05;49.30;101561.63;5000308;28;20520;-62
2023/05/14 04:12:56;;;;;;;7.03;4.70;;;;;;;17.04;48.43;101554.50;5000314;28;20055;-61
2023/05/14 04:15:22;;;;;;;7.22;6.07;;;;;;;17.06;49.56;101547.91;5017136;28;20025;-62
2023/05/14 04:17:47;;;;;;;8.73;5.90;;;;;;;17.05;48.83;101546.22;5016675;28;20033;-62
2023/05/14 04:20:12;;;;;;;9.30;5.40;;;;;;;17.09;49.95;101546.75;5034214;28;20038;-62
2023/05/14 04:22:38;;;;;;;5.60;5.00;;;;;;;17.11;49.53;101539.34;5016613;28;20045;-61
2023/05/14 04:25:04;;;;;;;7.28;5.85;;;;;;;17.11;49.55;101534.78;5016854;28;20033;-62
2023/05/14 04:27:29;;;;;;;8.50;5.90;;;;;;;17.15;49.09;101540.72;5000497;28;20033;-61
2023/05/14 04:29:55;;;;;;;6.80;5.53;;;;;;;17.19;48.90;101536.72;5016178;28;20121;-62
2023/05/14 04:32:20;;;;;;;7.13;5.53;;;;;;;17.18;49.51;101527.75;4983686;28;20048;-62
2023/05/14 04:34:46;;;;;;;7.35;5.28;;;;;;;17.28;50.35;101541.22;5016127;28;20505;-61
2023/05/14 04:37:11;;;;;;;5.65;4.57;;;;;;;17.33;48.49;101538.88;4999949;28;20037;-61
2023/05/14 04:39:37;;;;;;;7.75;5.47;;;;;;;17.37;48.47;101537.56;5016962;28;20112;-61
2023/05/14 04:42:03;;;;;;;9.48;6.15;;;;;;;17.45;49.06;101543.03;5016339;28;20037;-62
2023/05/14 04:44:28;;;;;;;10.93;6.35;;;;;;;17.53;49.67;101545.84;4999649;28;20052;-63
2023/05/14 04:46:54;;;;;;;10.70;6.68;;;;;;;17.61;48.73;101548.66;5016132;28;20124;-61
2023/05/14 04:49:19;;;;;;;10.43;6.93;;;;;;;17.70;49.30;101544.97;4999529;28;20033;-62
2023/05/14 04:51:45;;;;;;;8.70;6.53;;;;;;;17.79;49.68;101551.31;5000462;28;20033;-62
2023/05/14 04:54:11;;;;;;;11.40;6.70;;;;;;;17.82;49.43;101551.84;5033550;28;20033;-61
2023/05/14 04:56:36;;;;;;;12.98;6.75;;;;;;;17.92;49.93;101563.44;5033596;28;20112;-61
2023/05/14 04:59:01;;;;;;;7.65;6.07;;;;;;;18.01;50.32;101561.63;5015908;28;20515;-62
2023/05/14 05:01:27;;;;;;;11.13;7.10;;;;;;;18.10;49.48;101562.53;5015578;28;20113;-62
2023/05/14 05:03:52;;;;;;;12.20;7.20;;;;;;;18.17;49.59;101560.91;5033922;28;20651;-61
2023/05/14 05:06:18;;;;;;;9.38;6.53;;;;;;;18.26;49.17;101565.34;4999466;28;20500;-61
2023/05/14 05:08:43;;;;;;;10.43;6.90;;;;;;;18.31;50.27;101568.44;4999680;28;20052;-62
2023/05/14 05:11:08;;;;;;;9.65;6.28;;;;;;;18.37;49.61;101567.81;5015627;28;20045;-62
2023/05/14 05:13:34;;;;;;;11.30;6.75;;;;;;;18.41;49.40;101570.03;5015775;28;20118;-61
2023/05/14 05:15:59;;;;;;;8.48;6.70;;;;;;;18.47;49.45;101563.09;4999311;28;20033;-62
2023/05/14 05:18:25;;;;;;;8.32;6.43;;;;;;;18.56;50.26;101573.03;5033810;28;20025;-62
2023/05/14 05:20:50;;;;;;;8.90;6.20;;;;;;;18.60;49.86;101564.38;4983091;28;20099;-62
2023/05/14 05:23:15;;;;;;;8.43;6.93;;;;;;;18.70;49.72;101566.13;4999132;28;20121;-62
2023/05/14 05:25:41;;;;;;;14.60;7.20;;;;;;;18.77;49.76;101554.44;5033248;28;20108;-61
2023/05/14 05:28:06;;;;;;;12.98;6.20;;;;;;;18.89;49.89;101563.13;5015633;28;20424;-62
2023/05/14 05:30:32;;;;;;;14.57;7.03;;;;;;;18.94;50.26;101564.34;4999202;28;20075;-63
2023/05/14 05:32:58;;;;;;;12.50;6.82;;;;;;;19.07;49.74;101572.00;5015421;28;20049;-62
2023/05/14 05:35:23;;;;;;;12.02;7.20;;;;;;;19.16;49.35;101571.00;5015261;28;20088;-62
2023/05/14 05:37:49;;;;;;;9.88;6.55;;;;;;;19.31;49.81;101568.47;4998881;28;20416;-62
2023/05/14 05:40:15;;;;;;;10.95;7.20;;;;;;;19.41;49.67;101552.91;5015587;28;20072;-62
2023/05/14 05:42:42;;;;;;;11.15;7.47;;;;;;;19.55;49.11;101561.22;5033352;28;20052;-62
2023/05/14 05:45:08;;;;;;;15.10;7.68;;;;;;;19.68;48.86;101566.19;5014171;28;20462;-62
2023/05/14 05:47:34;;;;;;;11.35;7.68;;;;;;;19.79;49.39;101565.84;4995499;28;20548;-62
2023/05/14 05:49:59;;;;;;;13.07;7.40;;;;;;;19.90;49.39;101554.59;4995378;28;20038;-62
2023/05/14 05:52:24;;;;;;;13.93;7.78;;;;;;;20.06;49.37;101559.16;4995578;28;20048;-64
2023/05/14 05:54:50;;;;;;;14.77;7.18;;;;;;;20.18;49.17;101564.03;4996066;28;20030;-61
2023/05/14 05:57:15;;;;;;;11.35;7.40;;;;;;;20.31;48.66;101569.00;4995329;28;20034;-62
2023/05/14 05:59:41;;;;;;;11.85;7.95;;;;;;;20.39;48.88;101565.41;4979261;28;20030;-62
2023/05/14 06:02:06;;;;;;;14.68;8.65;;;;;;;20.49;48.70;101566.06;4962935;28;20054;-63
2023/05/14 06:04:31;;;;;;;12.55;7.78;;;;;;;20.60;48.94;101565.69;4979206;28;20049;-62
2023/05/14 06:06:57;;;;;;;12.70;7.88;;;;;;;20.70;48.91;101569.88;4995248;28;20168;-62
2023/05/14 06:09:22;;;;;;;11.15;8.65;;;;;;;20.80;48.54;101575.94;4995573;28;20486;-62
2023/05/14 06:11:47;;;;;;;15.25;8.75;;;;;;;20.92;48.30;101576.41;4995204;28;20053;-62
2023/05/14 06:14:13;;;;;;;13.90;9.73;;;;;;;21.02;48.06;101574.31;4997129;28;20064;-62
2023/05/14 06:16:38;;;;;;;10.00;8.20;;;;;;;21.13;48.57;101571.22;4999248;28;20386;-63
2023/05/14 06:19:04;;;;;;;17.23;8.75;;;;;;;21.23;48.44;101571.84;4982753;28;20144;-61
2023/05/14 06:21:29;;;;;;;13.43;8.40;;;;;;;21.38;48.38;101575.47;4967137;28;20504;-63
2023/05/14 06:23:54;;;;;;;13.30;8.50;;;;;;;21.50;48.42;101577.78;4999119;28;20418;-62
2023/05/14 06:26:20;;;;;;;14.40;8.43;;;;;;;21.62;48.40;101576.31;4966556;28;20061;-62
2023/05/14 06:28:46;;;;;;;16.42;8.95;;;;;;;21.73;47.50;101575.88;4998864;28;20038;-62
2023/05/14 06:31:12;;;;;;;10.65;8.30;;;;;;;21.83;47.14;101579.22;4982175;28;20556;-62
2023/05/14 06:33:38;;;;;;;16.20;8.27;;;;;;;21.95;47.85;101578.63;4995813;28;20058;-62
2023/05/14 06:36:04;;;;;;;17.13;8.40;;;;;;;22.06;47.83;101577.31;4995721;28;20037;-61
2023/05/14 06:38:30;;;;;;;16.42;8.73;;;;;;;22.18;46.78;101578.56;4979292;28;20084;-64
2023/05/14 06:40:55;;;;;;;14.88;8.35;;;;;;;22.26;47.15;101569.44;4979189;28;20035;-62
2023/05/14 06:43:21;;;;;;;17.48;8.20;;;;;;;22.39;47.26;101581.41;4995247;28;20034;-62
2023/05/14 06:45:50;;;;;;;11.25;8.43;;;;;;;22.53;47.24;101583.28;4979490;28;20019;-62
2023/05/14 06:48:17;;;;;;;11.68;8.07;;;;;;;22.67;46.48;101578.88;4995414;28;20068;-62
2023/05/14 06:50:43;;;;;;;12.48;9.05;;;;;;;22.79;47.12;101571.06;4979156;28;20061;-63
2023/05/14 06:53:08;;;;;;;10.82;8.75;;;;;;;22.92;46.70;101563.03;4995297;28;20049;-62
2023/05/14 06:55:34;;;;;;;17.40;8.75;;;;;;;23.02;46.19;101563.56;4962640;28;20034;-62
2023/05/14 06:58:00;;;;;;;12.75;9.38;;;;;;;23.16;45.77;101573.63;4979076;28;20050;-63
2023/05/14 07:00:25;;;;;;;13.90;8.57;;;;;;;23.29;45.62;101568.28;4979071;28;20482;-63
2023/05/14 07:02:51;;;;;;;14.73;9.32;;;;;;;23.41;45.87;101561.31;4995101;28;20062;-62
2023/05/14 07:05:16;;;;;;;10.32;8.45;;;;;;;23.55;46.01;101568.59;4995230;28;20038;-62
2023/05/14 07:07:41;;;;;;;12.85;8.45;;;;;;;23.67;45.15;101563.44;4978742;28;20034;-63
2023/05/14 07:10:07;;;;;;;11.77;9.13;;;;;;;23.77;45.75;101559.34;4978221;28;20512;-62
2023/05/14 07:12:32;;;;;;;13.27;8.77;;;;;;;23.92;45.73;101566.59;4979327;28;20030;-61
2023/05/14 07:14:58;;;;;;;10.32;8.15;;;;;;;24.07;44.73;101564.59;4994811;28;20549;-63
2023/05/14 07:17:23;;;;;;;12.38;8.52;;;;;;;24.17;44.87;101557.78;4978434;28;20043;-62
2023/05/14 07:19:48;;;;;;;11.40;8.00;;;;;;;24.30;44.89;101567.97;4978615;28;20494;-62
2023/05/14 07:22:14;;;;;;;12.52;9.00;;;;;;;24.43;45.16;101561.75;4978502;28;20092;-63
2023/05/14 07:24:39;;;;;;;13.05;9.25;;;;;;;24.57;44.76;101568.97;4994420;28;20061;-63
2023/05/14 07:27:05;;;;;;;12.57;9.45;;;;;;;24.63;44.65;101566.28;4993520;28;20181;-63
2023/05/14 07:29:33;;;;;;;10.18;8.77;;;;;;;24.68;44.35;101562.94;4994713;28;20058;-63
2023/05/14 07:31:59;;;;;;;11.93;8.80;;;;;;;24.77;44.18;101558.94;4963236;28;20034;-63
2023/05/14 07:34:25;;;;;;;13.95;8.45;;;;;;;24.94;43.61;101560.31;4978359;28;20047;-63
2023/05/14 07:36:50;;;;;;;11.02;8.02;;;;;;;25.05;44.48;101557.00;4994922;28;20386;-63
2023/05/14 07:39:16;;;;;;;12.40;8.73;;;;;;;25.23;44.07;101553.69;4994359;28;20031;-63
2023/05/14 07:41:41;;;;;;;15.40;8.55;;;;;;;25.38;43.52;101562.56;4978346;28;20034;-63
2023/05/14 07:44:06;;;;;;;12.95;8.75;;;;;;;25.48;43.56;101557.56;4994337;28;20121;-63
2023/05/14 07:46:32;;;;;;;11.85;8.80;;;;;;;25.63;43.10;101549.94;4977985;28;20039;-63
2023/05/14 07:48:58;;;;;;;15.00;9.77;;;;;;;25.74;43.40;101552.06;4994056;28;20484;-64
2023/05/14 07:51:27;;;;;;;12.25;8.77;;;;;;;25.85;43.26;101556.94;4995731;28;20023;-63
2023/05/14 07:53:54;;;;;;;11.00;8.45;;;;;;;25.97;42.81;101548.91;4995399;28;20030;-63
2023/05/14 07:56:21;;;;;;;17.33;9.48;;;;;;;26.07;42.76;101545.72;4977637;28;20514;-63
2023/05/14 07:58:47;;;;;;;13.60;9.52;;;;;;;26.21;42.49;101556.53;4995170;28;20038;-63
2023/05/14 08:01:13;;;;;;;10.93;9.20;;;;;;;26.30;42.15;101546.16;4995432;28;20065;-63
2023/05/14 08:03:38;;;;;;;11.95;8.48;;;;;;;26.44;42.30;101547.78;4994256;28;20030;-63
2023/05/14 08:06:04;;;;;;;15.93;9.13;;;;;;;26.56;41.73;101541.41;4994066;28;20038;-63
2023/05/14 08:08:29;;;;;;;14.90;10.15;;;;;;;26.71;41.71;101548.56;4995117;28;20080;-63
2023/05/14 08:10:54;;;;;;;13.18;8.80;;;;;;;26.88;41.53;101553.41;4993665;28;20038;-63
2023/05/14 08:13:20;;;;;;;15.63;9.75;;;;;;;26.98;41.79;101550.16;4977419;28;20039;-63
2023/05/14 08:15:46;;;;;;;15.20;10.18;;;;;;;27.07;41.69;101546.94;4998434;28;20041;-64
2023/05/14 08:18:11;;;;;;;15.30;9.00;;;;;;;27.23;40.87;101541.97;4995370;28;20061;-63
2023/05/14 08:20:36;;;;;;;10.60;8.35;;;;;;;27.36;40.74;101547.41;4994958;28;20568;-63
2023/05/14 08:23:02;;;;;;;15.52;10.32;;;;;;;27.44;40.30;101549.94;4993453;28;20030;-64
2023/05/14 08:25:27;;;;;;;12.05;8.55;;;;;;;27.56;41.06;101548.97;4997909;28;20034;-65
2023/05/14 08:27:53;;;;;;;12.00;9.40;;;;;;;27.64;40.91;101548.69;5000907;28;20053;-63
2023/05/14 08:30:19;;;;;;;11.85;8.52;;;;;;;27.71;40.26;101546.75;5001610;28;20037;-64
2023/05/14 08:32:44;;;;;;;12.18;9.88;;;;;;;27.81;40.20;101543.47;4995459;28;20035;-64
2023/05/14 08:35:10;;;;;;;14.88;9.27;;;;;;;27.91;39.77;101546.59;4993615;28;20039;-64
2023/05/14 08:37:35;;;;;;;11.50;8.75;;;;;;;28.01;40.37;101543.31;4992993;28;20026;-64
2023/05/14 08:40:01;;;;;;;14.02;9.43;;;;;;;28.16;40.09;101538.31;4994586;28;20018;-64
2023/05/14 08:42:27;;;;;;;15.52;10.55;;;;;;;28.27;39.32;101532.91;4993844;28;20034;-64
2023/05/14 08:45:00;;;;;;;21.17;9.27;;;;;;;28.40;39.62;101534.66;4993143;28;20567;-64
2023/05/14 08:47:29;;;;;;;14.43;9.93;;;;;;;28.51;39.54;101533.06;4993091;28;20176;-64
2023/05/14 08:50:03;;;;;;;12.90;9.32;;;;;;;28.62;38.87;101535.88;4994462;28;20030;-64
2023/05/14 08:52:29;;;;;;;14.10;9.90;;;;;;;28.74;39.28;101536.84;4977132;28;20038;-64
2023/05/14 08:54:55;;;;;;;13.68;8.93;;;;;;;28.87;39.26;101524.78;4993528;28;20030;-64
2023/05/14 08:57:23;;;;;;;15.30;9.82;;;;;;;29.01;39.17;101531.00;4976683;28;20042;-64
2023/05/14 08:59:52;;;;;;;13.48;9.77;;;;;;;29.08;38.35;101527.06;4992978;28;20046;-64
2023/05/14 09:02:22;;;;;;;16.08;9.32;;;;;;;29.20;38.07;101524.34;4977121;28;20031;-64
2023/05/14 09:04:50;;;;;;;14.60;9.07;;;;;;;29.22;38.77;101528.59;4976725;28;20036;-64
2023/05/14 09:07:16;;;;;;;13.38;9.93;;;;;;;29.31;38.76;101529.91;4992999;28;20074;-64
2023/05/14 09:09:43;;;;;;;12.65;8.88;;;;;;;29.43;37.72;101525.28;4977168;28;20505;-64
2023/05/14 09:12:09;;;;;;;13.98;9.30;;;;;;;29.55;38.12;101522.53;4992758;28;20042;-64
2023/05/14 09:14:34;;;;;;;9.98;8.70;;;;;;;29.64;38.32;101512.84;4992642;28;20059;-64
2023/05/14 09:17:00;;;;;;;14.25;8.90;;;;;;;29.81;37.69;101510.25;4992705;28;20039;-64
2023/05/14 09:19:25;;;;;;;14.27;9.38;;;;;;;29.87;38.02;101504.59;4976328;28;20027;-64
2023/05/14 09:21:51;;;;;;;13.48;8.27;;;;;;;30.06;37.42;101515.53;4993096;28;20056;-64
2023/05/14 09:24:21;;;;;;;11.38;6.88;;;;;;;30.20;37.39;101515.06;4994019;28;20034;-66
2023/05/14 09:26:49;;;;;;;18.45;9.07;;;;;;;30.36;37.18;101513.47;4992388;28;20490;-65
2023/05/14 09:29:14;;;;;;;53.72;10.95;;;;;;;30.50;36.85;101518.53;4992142;28;20402;-66
2023/05/14 09:31:40;;;;;;;14.38;8.43;;;;;;;30.61;36.54;101514.03;4993768;28;20050;-65
2023/05/14 09:34:05;;;;;;;11.68;7.78;;;;;;;30.70;36.12;101509.81;4992144;28;20521;-65
2023/05/14 09:36:33;;;;;;;12.75;9.02;;;;;;;30.80;36.06;101506.38;4976555;28;20056;-65
2023/05/14 09:38:59;;;;;;;15.50;8.77;;;;;;;30.90;36.00;101507.47;4993549;28;20035;-65
2023/05/14 09:41:25;;;;;;;11.00;9.43;;;;;;;31.05;35.71;101506.94;4992468;28;20380;-66
2023/05/14 09:43:50;;;;;;;13.80;10.18;;;;;;;31.18;35.85;101501.09;4993214;28;20038;-66
2023/05/14 09:46:16;;;;;;;18.42;10.13;;;;;;;31.28;35.66;101503.19;4992321;28;20568;-66
2023/05/14 09:48:41;;;;;;;12.10;9.20;;;;;;;31.39;35.70;101503.13;4991847;28;20026;-65
2023/05/14 09:51:08;;;;;;;11.88;9.65;;;;;;;31.48;35.38;101500.81;4992046;28;20109;-66
2023/05/14 09:53:34;;;;;;;13.48;8.68;;;;;;;31.59;34.94;101503.53;4992281;28;20545;-66
2023/05/14 09:56:00;;;;;;;11.48;8.95;;;;;;;31.70;34.39;101499.81;4992419;28;20062;-66
2023/05/14 09:58:25;;;;;;;11.63;8.73;;;;;;;31.81;34.46;101499.97;4993654;28;20375;-66
2023/05/14 10:00:51;;;;;;;12.50;8.82;;;;;;;31.86;34.70;101489.81;4992701;28;20129;-66
2023/05/14 10:03:17;;;;;;;10.77;8.43;;;;;;;31.95;34.04;101506.84;4976092;28;20034;-66
2023/05/14 10:05:43;;;;;;;11.02;8.43;;;;;;;32.01;33.73;101500.34;4992166;28;20030;-66
2023/05/14 10:08:13;;;;;;;10.60;8.30;;;;;;;32.08;33.90;101495.44;4992235;28;20498;-66
2023/05/14 10:10:39;;;;;;;10.75;6.75;;;;;;;32.16;33.64;101492.25;4976079;28;20061;-67
2023/05/14 10:13:12;;;;;;;12.23;7.97;;;;;;;32.22;32.97;101494.81;4993639;28;20027;-66
2023/05/14 10:16:01;;;;;;;12.13;7.10;;;;;;;32.36;33.72;101492.50;4976249;28;20478;-65
2023/05/14 10:18:29;;;;;;;10.60;7.88;;;;;;;32.47;32.35;101488.75;4976284;28;20046;-66
2023/05/14 10:21:02;;;;;;;12.65;7.63;;;;;;;32.56;32.02;101492.81;4992328;28;20027;-66
2023/05/14 10:23:28;;;;;;;12.23;7.93;;;;;;;32.68;32.13;101490.75;4993636;28;20096;-65
2023/05/14 10:25:54;;;;;;;10.82;7.72;;;;;;;32.73;32.10;101484.41;4992998;28;20037;-66
2023/05/14 10:28:19;;;;;;;13.05;7.35;;;;;;;32.79;32.06;101489.78;5012594;28;20113;-67
2023/05/14 10:30:45;;;;;;;12.90;7.68;;;;;;;32.94;32.47;101488.25;5013124;28;20025;-66
2023/05/14 10:33:14;;;;;;;10.13;8.02;;;;;;;33.05;31.38;101485.34;5011786;28;20409;-66
2023/05/14 10:36:05;;;;;;;13.85;8.45;;;;;;;33.20;31.35;101488.28;5003658;28;20129;-67
2023/05/14 10:38:35;;;;;;;12.73;8.40;;;;;;;33.32;31.50;101479.78;5012547;28;20048;-67
2023/05/14 10:41:00;;;;;;;10.23;7.45;;;;;;;33.47;32.20;101477.16;4994977;28;20121;-66
2023/05/14 10:43:30;;;;;;;8.13;6.88;;;;;;;33.60;31.70;101479.50;4994891;28;20394;-66
2023/05/14 10:45:56;;;;;;;9.13;7.88;;;;;;;33.79;31.00;101474.38;4979499;28;20026;-66
2023/05/14 10:48:22;;;;;;;11.10;8.50;;;;;;;33.95;30.68;101471.41;5012526;28;20050;-66
2023/05/14 10:50:50;;;;;;;10.57;9.48;;;;;;;34.10;31.33;101469.88;4994664;28;20427;-66
2023/05/14 10:53:15;;;;;;;9.20;8.20;;;;;;;34.26;31.08;101466.88;4994899;28;20501;-67
2023/05/14 10:55:42;;;;;;;10.27;7.93;;;;;;;34.40;31.35;101464.44;4978579;28;20109;-68
2023/05/14 10:58:09;;;;;;;9.90;7.50;;;;;;;34.51;30.95;101461.44;4994819;28;20108;-67
2023/05/14 11:00:35;;;;;;;15.35;9.25;;;;;;;34.65;30.62;101456.22;4997429;28;20041;-67
2023/05/14 11:03:03;;;;;;;9.38;8.27;;;;;;;34.78;29.88;101461.31;4998159;28;20049;-67
2023/05/14 11:05:28;;;;;;;9.50;8.00;;;;;;;34.90;29.43;101453.50;4998308;28;20061;-67
2023/05/14 11:07:56;;;;;;;11.52;7.22;;;;;;;35.04;29.59;101451.03;4982021;28;20506;-71
2023/05/14 11:10:24;;;;;;;11.43;7.65;;;;;;;34.95;30.28;101450.72;4998002;28;20394;-70
2023/05/14 11:12:50;;;;;;;16.85;9.27;;;;;;;34.23;30.78;101449.94;4998458;28;20080;-66
2023/05/14 11:15:18;;;;;;;9.25;7.80;;;;;;;34.66;29.35;101445.94;4998195;28;20100;-67
2023/05/14 11:17:45;;;;;;;9.02;8.13;;;;;;;34.02;30.73;101439.75;5015747;28;20473;-73